createdAt,value
2023-04-28T00:02:24.657Z,13.22
2023-04-28T00:04:56.598Z,13.18
2023-04-28T00:07:28.324Z,13.16
2023-04-28T00:09:59.847Z,13.14
2023-04-28T00:12:32.846Z,13.14
2023-04-28T00:15:04.396Z,13.14
2023-04-28T00:17:35.934Z,13.10
2023-04-28T00:20:08.679Z,13.05
2023-04-28T00:22:40.377Z,13.03
2023-04-28T00:25:11.844Z,13.00
2023-04-28T00:27:43.270Z,13.00
2023-04-28T00:30:15.130Z,12.98
2023-04-28T00:32:46.640Z,12.97
2023-04-28T00:35:18.193Z,12.97
2023-04-28T00:37:49.613Z,12.94
2023-04-28T00:40:21.674Z,12.94
2023-04-28T00:42:54.219Z,12.94
2023-04-28T00:45:25.967Z,12.91
2023-04-28T00:47:58.272Z,12.89
2023-04-28T00:50:29.846Z,12.87
2023-04-28T00:53:01.688Z,12.87
2023-04-28T00:55:37.105Z,12.88
2023-04-28T00:58:08.743Z,12.91
2023-04-28T01:00:40.882Z,12.91
2023-04-28T01:03:12.576Z,12.87
2023-04-28T01:05:44.338Z,12.84
2023-04-28T01:08:19.106Z,12.79
2023-04-28T01:10:50.915Z,12.74
2023-04-28T01:13:24.168Z,12.75
2023-04-28T01:15:56.450Z,12.75
2023-04-28T01:18:28.131Z,12.76
2023-04-28T01:20:59.608Z,12.75
2023-04-28T01:23:31.838Z,12.73
2023-04-28T01:26:03.481Z,12.73
2023-04-28T01:28:35.104Z,12.67
2023-04-28T01:31:06.600Z,12.60
2023-04-28T01:33:38.300Z,12.48
2023-04-28T01:36:10.702Z,12.43
2023-04-28T01:38:42.070Z,12.45
2023-04-28T01:41:16.461Z,12.42
2023-04-28T01:43:47.934Z,12.35
2023-04-28T01:46:19.359Z,12.28
2023-04-28T01:48:50.767Z,12.20
2023-04-28T01:51:22.722Z,12.11
2023-04-28T01:53:54.597Z,12.08
2023-04-28T01:56:26.175Z,12.04
2023-04-28T01:58:59.133Z,12.04
2023-04-28T02:01:30.796Z,12.04
2023-04-28T02:04:02.532Z,11.97
2023-04-28T02:06:35.522Z,11.93
2023-04-28T02:09:06.902Z,11.90
2023-04-28T02:11:38.223Z,11.97
2023-04-28T02:14:09.703Z,11.93
2023-04-28T02:16:43.078Z,11.96
2023-04-28T02:19:16.689Z,11.99
2023-04-28T02:21:48.025Z,11.96
2023-04-28T02:24:19.370Z,11.93
2023-04-28T02:26:51.324Z,11.85
2023-04-28T02:29:22.709Z,11.83
2023-04-28T02:31:54.552Z,11.84
2023-04-28T02:34:27.158Z,11.82
2023-04-28T02:36:58.613Z,11.82
2023-04-28T02:39:33.056Z,11.83
2023-04-28T02:42:05.848Z,11.81
2023-04-28T02:44:37.373Z,11.81
2023-04-28T02:47:09.836Z,11.85
2023-04-28T02:49:41.309Z,11.92
2023-04-28T02:52:15.677Z,11.96
2023-04-28T02:54:49.248Z,11.97
2023-04-28T02:57:21.722Z,12.00
2023-04-28T02:59:53.235Z,12.05
2023-04-28T03:02:26.676Z,12.12
2023-04-28T03:04:58.300Z,12.18
2023-04-28T03:07:30.887Z,12.29
2023-04-28T03:10:02.442Z,12.38
2023-04-28T03:12:34.516Z,12.43
2023-04-28T03:15:08.632Z,12.49
2023-04-28T03:17:43.964Z,12.53
2023-04-28T03:20:16.018Z,12.59
2023-04-28T03:22:48.272Z,12.63
2023-04-28T03:25:20.030Z,12.68
2023-04-28T03:27:53.543Z,12.73
2023-04-28T03:30:26.025Z,12.79
2023-04-28T03:32:57.698Z,12.82
2023-04-28T03:35:29.418Z,12.86
2023-04-28T03:38:02.576Z,12.89
2023-04-28T03:40:34.358Z,12.96
2023-04-28T03:43:23.711Z,12.99
2023-04-28T03:46:11.748Z,13.06
2023-04-28T03:48:43.914Z,13.14
2023-04-28T03:51:15.837Z,13.19
2023-04-28T03:53:47.525Z,13.23
2023-04-28T03:56:19.246Z,13.22
2023-04-28T03:58:50.792Z,13.27
2023-04-28T04:01:24.691Z,13.28
2023-04-28T04:03:57.843Z,13.29
2023-04-28T04:06:30.008Z,13.40
2023-04-28T04:09:09.514Z,13.55
2023-04-28T04:11:44.267Z,13.75
2023-04-28T04:14:16.826Z,13.86
2023-04-28T04:16:53.469Z,14.01
2023-04-28T04:19:30.809Z,14.16
2023-04-28T04:22:03.424Z,14.24
2023-04-28T04:24:35.508Z,14.31
2023-04-28T04:27:07.640Z,14.42
2023-04-28T04:29:40.802Z,14.53
2023-04-28T04:32:17.498Z,14.69
2023-04-28T04:34:50.970Z,14.79
2023-04-28T04:37:30.375Z,14.92
2023-04-28T04:40:36.354Z,15.07
2023-04-28T04:42:56.869Z,15.18
2023-04-28T04:45:34.159Z,15.26
2023-04-28T04:48:06.154Z,15.18
2023-04-28T04:50:39.463Z,15.28
2023-04-28T04:53:14.592Z,15.43
2023-04-28T04:55:44.333Z,15.44
2023-04-28T04:58:16.100Z,15.48
2023-04-28T05:01:08.892Z,15.63
2023-04-28T05:03:45.532Z,15.72
2023-04-28T05:06:19.416Z,15.78
2023-04-28T05:08:53.885Z,15.72
2023-04-28T05:11:26.222Z,15.52
2023-04-28T05:13:57.867Z,15.35
2023-04-28T05:16:30.771Z,15.16
2023-04-28T05:19:14.994Z,15.03
2023-04-28T05:21:50.283Z,15.01
2023-04-28T05:24:23.673Z,15.08
2023-04-28T05:26:55.533Z,15.34
2023-04-28T05:29:29.545Z,15.64
2023-04-28T05:32:01.108Z,15.83
2023-04-28T05:34:32.927Z,15.93
2023-04-28T05:37:09.515Z,15.94
2023-04-28T05:39:42.848Z,15.82
2023-04-28T05:42:15.914Z,15.74
2023-04-28T05:44:50.174Z,15.74
2023-04-28T05:47:22.142Z,15.75
2023-04-28T05:49:54.833Z,15.41
2023-04-28T05:52:26.848Z,15.09
2023-04-28T05:54:58.861Z,14.94
2023-04-28T05:57:49.353Z,14.68
2023-04-28T06:00:12.317Z,14.60
2023-04-28T06:02:43.683Z,14.51
2023-04-28T06:05:18.214Z,14.46
2023-04-28T06:07:51.572Z,14.47
2023-04-28T06:10:27.918Z,14.49
2023-04-28T06:13:02.786Z,14.47
2023-04-28T06:15:36.829Z,14.57
2023-04-28T06:18:09.946Z,14.63
2023-04-28T06:20:41.709Z,14.66
2023-04-28T06:23:13.808Z,14.61
2023-04-28T06:25:47.151Z,14.64
2023-04-28T06:28:19.338Z,14.73
2023-04-28T06:30:51.271Z,14.87
2023-04-28T06:33:22.729Z,15.07
2023-04-28T06:35:54.533Z,15.19
2023-04-28T06:38:26.288Z,15.33
2023-04-28T06:40:58.149Z,15.51
2023-04-28T06:43:30.205Z,15.79
2023-04-28T06:46:03.551Z,16.18
2023-04-28T06:48:35.500Z,16.68
2023-04-28T06:51:08.746Z,17.34
2023-04-28T06:53:40.946Z,18.30
2023-04-28T06:56:14.053Z,19.02
2023-04-28T06:58:55.210Z,19.62
2023-04-28T07:01:27.396Z,19.52
2023-04-28T07:04:03.154Z,18.98
2023-04-28T07:06:37.470Z,18.13
2023-04-28T07:09:09.222Z,17.80
2023-04-28T07:11:52.016Z,17.49
2023-04-28T07:15:12.894Z,17.42
2023-04-28T07:17:36.566Z,17.62
2023-04-28T07:20:12.688Z,17.92
2023-04-28T07:22:45.412Z,18.75
2023-04-28T07:25:17.609Z,19.57
2023-04-28T07:27:50.601Z,19.65
2023-04-28T07:30:28.323Z,19.44
2023-04-28T07:33:21.335Z,19.11
2023-04-28T07:35:55.370Z,18.92
2023-04-28T07:38:37.856Z,18.76
2023-04-28T07:41:11.617Z,18.52
2023-04-28T07:43:44.427Z,18.29
2023-04-28T07:46:16.357Z,18.15
2023-04-28T07:48:48.242Z,18.01
2023-04-28T07:51:19.864Z,17.63
2023-04-28T07:53:52.809Z,17.26
2023-04-28T07:56:24.588Z,17.10
2023-04-28T07:58:56.354Z,16.79
2023-04-28T08:01:29.339Z,16.73
2023-04-28T08:04:01.415Z,16.86
2023-04-28T08:06:37.776Z,17.03
2023-04-28T08:09:10.840Z,17.26
2023-04-28T08:11:42.996Z,17.03
2023-04-28T08:14:18.415Z,17.16
2023-04-28T08:16:50.719Z,17.24
2023-04-28T08:19:22.661Z,17.13
2023-04-28T08:21:55.515Z,16.87
2023-04-28T08:24:29.361Z,16.67
2023-04-28T08:27:03.545Z,16.66
2023-04-28T08:29:36.137Z,16.56
2023-04-28T08:32:09.364Z,16.55
2023-04-28T08:34:41.015Z,16.52
2023-04-28T08:37:14.077Z,16.41
2023-04-28T08:39:45.694Z,16.28
2023-04-28T08:42:19.510Z,16.29
2023-04-28T08:44:52.729Z,16.13
2023-04-28T08:47:24.703Z,16.06
2023-04-28T08:49:58.210Z,15.90
2023-04-28T08:52:31.348Z,15.65
2023-04-28T08:55:04.752Z,15.49
2023-04-28T08:57:38.673Z,15.27
2023-04-28T09:00:11.767Z,15.08
2023-04-28T09:02:43.710Z,14.97
2023-04-28T09:05:15.982Z,14.97
2023-04-28T09:07:48.835Z,14.90
2023-04-28T09:10:21.902Z,14.91
2023-04-28T09:12:55.225Z,14.86
2023-04-28T09:15:33.297Z,14.92
2023-04-28T09:18:05.063Z,15.05
2023-04-28T09:20:37.846Z,15.13
2023-04-28T09:23:16.273Z,15.27
2023-04-28T09:26:15.861Z,15.32
2023-04-28T09:28:47.801Z,15.47
2023-04-28T09:31:25.991Z,15.43
2023-04-28T09:34:01.006Z,15.42
2023-04-28T09:36:32.936Z,15.47
2023-04-28T09:39:04.692Z,15.56
2023-04-28T09:41:40.700Z,15.78
2023-04-28T09:44:14.837Z,16.08
2023-04-28T09:46:47.528Z,16.23
2023-04-28T09:49:19.167Z,16.71
2023-04-28T09:51:51.238Z,18.10
2023-04-28T09:54:27.238Z,20.80
2023-04-28T09:56:58.819Z,20.63
2023-04-28T09:59:30.626Z,19.93
2023-04-28T10:02:12.904Z,19.46
2023-04-28T10:04:37.279Z,19.20
2023-04-28T10:07:10.674Z,18.90
2023-04-28T10:09:44.427Z,18.48
2023-04-28T10:12:16.327Z,18.33
2023-04-28T10:14:49.911Z,18.10
2023-04-28T10:17:21.919Z,17.80
2023-04-28T10:19:55.129Z,17.67
2023-04-28T10:22:29.817Z,17.84
2023-04-28T10:25:06.481Z,17.90
2023-04-28T10:27:38.584Z,17.51
2023-04-28T10:30:26.508Z,17.35
2023-04-28T10:32:48.578Z,17.34
2023-04-28T10:35:38.482Z,17.25
2023-04-28T10:38:11.002Z,16.92
2023-04-28T10:40:43.495Z,16.68
2023-04-28T10:43:15.710Z,16.39
2023-04-28T10:46:05.113Z,15.80
2023-04-28T10:48:56.497Z,15.08
2023-04-28T10:51:51.984Z,14.61
2023-04-28T10:54:23.898Z,14.33
2023-04-28T10:57:12.824Z,14.31
2023-04-28T10:59:44.641Z,14.16
2023-04-28T11:02:36.845Z,14.07
2023-04-28T11:05:22.514Z,14.00
2023-04-28T11:08:13.306Z,13.94
2023-04-28T11:11:14.809Z,13.82
2023-04-28T11:13:51.040Z,13.85
2023-04-28T11:16:23.755Z,14.13
2023-04-28T11:18:59.978Z,14.37
2023-04-28T11:21:33.893Z,14.43
2023-04-28T11:24:12.255Z,14.36
2023-04-28T11:26:46.964Z,14.37
2023-04-28T11:29:19.128Z,14.46
2023-04-28T11:31:53.972Z,14.47
2023-04-28T11:34:47.429Z,14.45
2023-04-28T11:37:24.273Z,14.51
2023-04-28T11:39:59.068Z,14.65
2023-04-28T11:42:32.090Z,14.85
2023-04-28T11:45:22.761Z,14.92
2023-04-28T11:47:56.100Z,15.13
2023-04-28T11:50:38.026Z,15.22
2023-04-28T11:53:09.736Z,15.35
2023-04-28T11:55:41.520Z,15.45
2023-04-28T11:58:24.186Z,15.53
2023-04-28T12:01:12.338Z,15.39
2023-04-28T12:03:47.656Z,15.17
2023-04-28T12:06:21.260Z,15.00
2023-04-28T12:08:54.810Z,14.91
2023-04-28T12:11:26.539Z,14.82
2023-04-28T12:14:11.023Z,14.58
2023-04-28T12:16:48.195Z,14.57
2023-04-28T12:19:21.192Z,14.52
2023-04-28T12:22:03.327Z,14.43
2023-04-28T12:24:37.374Z,14.42
2023-04-28T12:27:20.781Z,14.41
2023-04-28T12:29:52.909Z,14.28
2023-04-28T12:32:40.197Z,14.21
2023-04-28T12:35:11.929Z,14.21
2023-04-28T12:37:44.473Z,14.13
2023-04-28T12:40:17.736Z,14.08
2023-04-28T12:42:50.262Z,14.01
2023-04-28T12:45:22.017Z,13.97
2023-04-28T12:47:53.641Z,13.96
2023-04-28T12:50:25.992Z,13.90
2023-04-28T12:52:57.948Z,13.86
2023-04-28T12:55:30.475Z,13.81
2023-04-28T12:58:03.178Z,13.69
2023-04-28T13:00:34.862Z,13.57
2023-04-28T13:03:07.307Z,13.54
2023-04-28T13:05:39.999Z,13.46
2023-04-28T13:08:12.961Z,13.38
2023-04-28T13:10:45.946Z,13.33
2023-04-28T13:13:17.885Z,13.32
2023-04-28T13:15:49.639Z,13.31
2023-04-28T13:18:23.290Z,13.22
2023-04-28T13:20:56.838Z,13.14
2023-04-28T13:23:28.470Z,13.02
2023-04-28T13:26:00.171Z,12.89
2023-04-28T13:28:31.806Z,12.93
2023-04-28T13:31:04.650Z,13.04
2023-04-28T13:33:36.693Z,13.02
2023-04-28T13:36:10.230Z,12.86
2023-04-28T13:38:45.753Z,12.46
2023-04-28T13:41:19.602Z,12.52
2023-04-28T13:43:53.493Z,12.34
2023-04-28T13:53:35.362Z,11.92
2023-04-28T13:56:13.209Z,11.80
2023-04-28T13:58:45.385Z,11.72
2023-04-28T14:01:22.552Z,11.66
2023-04-28T14:04:22.304Z,11.62
2023-04-28T14:07:17.270Z,11.63
2023-04-28T14:10:00.743Z,11.60
2023-04-28T14:12:36.033Z,11.52
2023-04-28T14:15:21.362Z,11.46
2023-04-28T14:18:23.515Z,11.46
2023-04-28T14:28:31.491Z,11.28
2023-04-28T14:31:19.909Z,11.12
2023-04-28T14:33:57.989Z,11.05
2023-04-28T14:36:35.936Z,10.97
2023-04-28T14:39:11.773Z,10.95
2023-04-28T14:41:43.446Z,10.99
2023-04-28T14:44:15.396Z,11.06
2023-04-28T14:46:47.357Z,11.10
2023-04-28T14:49:19.643Z,11.00
2023-04-28T14:51:51.958Z,10.92
2023-04-28T14:54:24.126Z,10.88
2023-04-28T14:57:01.814Z,10.87
2023-04-28T14:59:33.670Z,10.86
2023-04-28T15:02:07.762Z,10.87
2023-04-28T15:04:46.738Z,10.88
2023-04-28T15:07:22.062Z,10.83
2023-04-28T15:09:56.009Z,10.68
2023-04-28T15:12:29.795Z,10.55
2023-04-28T15:15:01.847Z,10.49
2023-04-28T15:17:34.684Z,10.52
2023-04-28T15:20:07.610Z,10.65
2023-04-28T15:22:41.572Z,10.79
2023-04-28T15:25:15.740Z,10.90
2023-04-28T15:27:49.286Z,10.88
2023-04-28T15:30:21.395Z,10.87
2023-04-28T15:32:53.966Z,10.84
2023-04-28T15:35:26.071Z,10.84
2023-04-28T15:37:58.311Z,10.88
2023-04-28T15:40:31.354Z,10.96
2023-04-28T15:43:08.619Z,11.00
2023-04-28T15:45:40.868Z,11.01
2023-04-28T15:48:13.081Z,10.99
2023-04-28T15:50:49.323Z,10.97
2023-04-28T15:53:22.642Z,10.90
2023-04-28T15:55:54.614Z,10.90
2023-04-28T15:58:26.521Z,10.89
2023-04-28T16:01:02.489Z,10.83
2023-04-28T16:03:37.369Z,10.67
2023-04-28T16:06:11.074Z,10.46
2023-04-28T16:08:45.937Z,10.37
2023-04-28T16:11:33.822Z,10.35
2023-04-28T16:14:18.889Z,10.34
2023-04-28T16:17:03.394Z,10.32
2023-04-28T16:19:57.009Z,10.35
2023-04-28T16:22:33.047Z,10.32
2023-04-28T16:25:13.420Z,10.16
2023-04-28T16:27:52.868Z,9.99
2023-04-28T16:30:29.381Z,9.74
2023-04-28T16:33:05.254Z,9.59
2023-04-28T16:35:39.527Z,9.46
2023-04-28T16:38:15.828Z,9.40
2023-04-28T16:40:49.219Z,9.38
2023-04-28T16:43:24.452Z,9.33
2023-04-28T16:45:58.908Z,9.25
2023-04-28T16:48:33.168Z,9.18
2023-04-28T16:51:07.632Z,9.08
2023-04-28T16:53:42.036Z,8.98
2023-04-28T16:56:14.392Z,8.93
2023-04-28T16:58:50.803Z,8.89
2023-04-28T17:01:27.004Z,8.89
2023-04-28T17:04:03.256Z,8.81
2023-04-28T17:06:35.483Z,8.71
2023-04-28T17:09:11.749Z,8.63
2023-04-28T17:11:46.249Z,8.54
2023-04-28T17:14:23.760Z,8.48
2023-04-28T17:16:57.244Z,8.53
2023-04-28T17:19:30.498Z,8.58
2023-04-28T17:22:05.163Z,8.52
2023-04-28T17:24:37.342Z,8.42
2023-04-28T17:27:13.811Z,8.47
2023-04-28T17:29:49.648Z,8.54
2023-04-28T17:32:22.098Z,8.55
2023-04-28T17:34:56.686Z,8.56
2023-04-28T17:37:31.775Z,8.54
2023-04-28T17:40:12.834Z,8.48
2023-04-28T17:42:47.881Z,8.50
2023-04-28T17:45:26.696Z,8.53
2023-04-28T17:48:02.673Z,8.58
2023-04-28T17:50:37.407Z,8.66
2023-04-28T17:53:09.685Z,8.64
2023-04-28T17:55:44.104Z,8.59
2023-04-28T17:58:19.294Z,8.48
2023-04-28T18:00:51.230Z,8.37
2023-04-28T18:03:26.387Z,8.30
2023-04-28T18:09:04.133Z,8.18
2023-04-28T18:11:44.362Z,8.13
2023-04-28T18:14:20.556Z,8.24
2023-04-28T18:16:52.528Z,8.31
2023-04-28T18:19:26.297Z,8.24
2023-04-28T18:22:00.529Z,8.20
2023-04-28T18:24:33.932Z,8.30
2023-04-28T18:27:07.151Z,8.37
2023-04-28T18:29:38.991Z,8.39
2023-04-28T18:32:14.277Z,8.41
2023-04-28T18:34:50.228Z,8.35
2023-04-28T18:37:38.853Z,8.27
2023-04-28T18:40:21.540Z,8.27
2023-04-28T18:42:59.441Z,8.31
2023-04-28T18:45:34.786Z,8.22
2023-04-28T18:48:27.348Z,8.14
2023-04-28T18:51:03.468Z,8.04
2023-04-28T18:53:48.111Z,8.02
2023-04-28T19:00:09.339Z,8.01
2023-04-28T19:02:41.316Z,7.86
2023-04-28T19:05:28.073Z,7.81
2023-04-28T19:08:01.496Z,7.72
2023-04-28T19:10:34.606Z,7.66
2023-04-28T19:13:08.917Z,7.68
2023-04-28T19:15:46.456Z,7.69
2023-04-28T19:18:18.521Z,7.71
2023-04-28T19:20:52.853Z,7.70
2023-04-28T19:23:27.561Z,7.64
2023-04-28T19:26:03.252Z,7.59
2023-04-28T19:28:36.239Z,7.61
2023-04-28T19:31:09.640Z,7.63
2023-04-28T19:36:50.257Z,7.42
2023-04-28T19:39:26.872Z,7.36
2023-04-28T19:42:02.807Z,7.34
2023-04-28T19:44:36.443Z,7.30
2023-04-28T19:47:15.030Z,7.35
2023-04-28T19:49:55.534Z,7.34
2023-04-28T19:52:35.099Z,7.25
2023-04-28T19:55:21.771Z,7.16
2023-04-28T19:57:56.298Z,7.16
2023-04-28T20:00:32.679Z,7.11
2023-04-28T20:03:10.367Z,7.02
2023-04-28T20:05:43.680Z,6.94
2023-04-28T20:08:43.800Z,6.85
2023-04-28T20:11:17.521Z,6.83
2023-04-28T20:13:52.982Z,6.77
2023-04-28T20:16:26.141Z,6.70
2023-04-28T20:18:57.574Z,6.74
2023-04-28T20:21:29.638Z,6.78
2023-04-28T20:24:04.544Z,6.78
2023-04-28T20:26:37.436Z,6.81
2023-04-28T20:29:10.801Z,6.80
2023-04-28T20:31:45.195Z,6.82
2023-04-28T20:34:35.213Z,6.81
2023-04-28T20:37:11.187Z,6.84
2023-04-28T20:39:42.772Z,6.79
2023-04-28T20:42:14.237Z,6.76
2023-04-28T20:44:47.096Z,6.80
2023-04-28T20:47:18.918Z,6.78
2023-04-28T20:49:50.437Z,6.74
2023-04-28T20:52:25.233Z,6.72
2023-04-28T20:54:59.230Z,6.72
2023-04-28T20:57:30.781Z,6.74
2023-04-28T21:00:04.642Z,6.77
2023-04-28T21:02:38.685Z,6.84
2023-04-28T21:05:13.082Z,6.77
2023-04-28T21:07:45.397Z,6.79
2023-04-28T21:10:16.818Z,6.77
2023-04-28T21:12:58.267Z,6.82
2023-04-28T21:15:29.566Z,6.88
2023-04-28T21:18:01.138Z,6.89
2023-04-28T21:20:32.560Z,6.92
2023-04-28T21:23:07.546Z,6.93
2023-04-28T21:25:39.280Z,6.95
2023-04-28T21:28:11.885Z,6.91
2023-04-28T21:30:43.657Z,6.93
2023-04-28T21:33:15.067Z,6.94
2023-04-28T21:35:46.407Z,6.92
2023-04-28T21:38:17.837Z,6.87
2023-04-28T21:40:50.043Z,6.83
2023-04-28T21:43:22.601Z,6.77
2023-04-28T21:45:54.136Z,6.78
2023-04-28T21:48:25.709Z,6.74
2023-04-28T21:50:57.484Z,6.72
2023-04-28T21:53:29.631Z,6.71
2023-04-28T21:56:01.125Z,6.73
2023-04-28T21:58:32.752Z,6.71
2023-04-28T22:01:04.712Z,6.69
2023-04-28T22:03:36.845Z,6.67
2023-04-28T22:06:08.487Z,6.67
2023-04-28T22:08:40.097Z,6.71
2023-04-28T22:11:11.633Z,6.74
2023-04-28T22:13:43.194Z,6.71
2023-04-28T22:16:14.697Z,6.64
2023-04-28T22:18:46.340Z,6.57
2023-04-28T22:21:23.700Z,6.48
2023-04-28T22:24:18.189Z,6.40
2023-04-28T22:26:48.827Z,6.37
2023-04-28T22:29:20.964Z,6.39
2023-04-28T22:31:52.604Z,6.32
2023-04-28T22:34:24.186Z,6.28
2023-04-28T22:36:56.021Z,6.32
2023-04-28T22:39:27.579Z,6.31
2023-04-28T22:41:59.850Z,6.24
2023-04-28T22:44:31.475Z,6.24
2023-04-28T22:47:03.569Z,6.16
2023-04-28T22:49:35.118Z,6.07
2023-04-28T22:52:06.896Z,5.94
2023-04-28T22:54:41.905Z,5.76
2023-04-28T22:57:13.566Z,5.68
2023-04-28T22:59:45.851Z,5.57
2023-04-28T23:02:17.691Z,5.51
2023-04-28T23:04:49.263Z,5.48
2023-04-28T23:07:20.914Z,5.46
2023-04-28T23:09:52.755Z,5.45
2023-04-28T23:12:24.595Z,5.46
2023-04-28T23:14:56.684Z,5.45
2023-04-28T23:17:28.209Z,5.39
2023-04-28T23:19:59.956Z,5.27
2023-04-28T23:22:33.053Z,5.22
2023-04-28T23:25:04.753Z,5.21
2023-04-28T23:27:36.218Z,4.98
2023-04-28T23:30:11.833Z,5.24
2023-04-28T23:32:43.833Z,5.27
2023-04-28T23:35:15.468Z,5.34
2023-04-28T23:37:47.541Z,5.33
2023-04-28T23:40:19.297Z,5.32
2023-04-28T23:42:50.842Z,5.32
2023-04-28T23:45:22.771Z,5.35
2023-04-28T23:47:54.525Z,5.35
2023-04-28T23:50:26.219Z,5.36
2023-04-28T23:52:57.852Z,5.36
2023-04-28T23:55:29.408Z,5.38
2023-04-28T23:58:00.854Z,5.41
